sensor_id;sensor_type;location;lat;lon;timestamp;temperature;humidity
34833;DHT22;55941;50.800;4.342;2022-11-15T00:00:53;12.80;99.90
34833;DHT22;55941;50.800;4.342;2022-11-15T00:03:22;12.80;99.90
34833;DHT22;55941;50.800;4.342;2022-11-15T00:05:48;12.80;99.90
34833;DHT22;55941;50.800;4.342;2022-11-15T00:08:14;12.80;99.90
34833;DHT22;55941;50.800;4.342;2022-11-15T00:10:39;12.80;99.90
34833;DHT22;55941;50.800;4.342;2022-11-15T00:13:11;12.90;99.90
34833;DHT22;55941;50.800;4.342;2022-11-15T00:15:38;12.80;99.90
34833;DHT22;55941;50.800;4.342;2022-11-15T00:18:04;12.90;99.90
34833;DHT22;55941;50.800;4.342;2022-11-15T00:20:33;12.70;99.90
34833;DHT22;55941;50.800;4.342;2022-11-15T00:22:59;12.70;99.90
34833;DHT22;55941;50.800;4.342;2022-11-15T00:25:25;12.70;99.90
34833;DHT22;55941;50.800;4.342;2022-11-15T00:27:55;12.70;99.90
34833;DHT22;55941;50.800;4.342;2022-11-15T00:30:21;12.70;99.90
34833;DHT22;55941;50.800;4.342;2022-11-15T00:32:47;12.80;99.90
34833;DHT22;55941;50.800;4.342;2022-11-15T00:35:13;13.00;99.90
34833;DHT22;55941;50.800;4.342;2022-11-15T00:37:39;13.00;99.90
34833;DHT22;55941;50.800;4.342;2022-11-15T00:40:06;13.10;99.90
34833;DHT22;55941;50.800;4.342;2022-11-15T00:42:32;13.10;99.90
34833;DHT22;55941;50.800;4.342;2022-11-15T00:44:59;13.10;99.90
34833;DHT22;55941;50.800;4.342;2022-11-15T00:47:25;13.10;99.90
34833;DHT22;55941;50.800;4.342;2022-11-15T00:49:51;13.20;99.90
34833;DHT22;55941;50.800;4.342;2022-11-15T00:52:17;13.20;99.90
34833;DHT22;55941;50.800;4.342;2022-11-15T00:54:43;13.10;99.90
34833;DHT22;55941;50.800;4.342;2022-11-15T00:57:08;13.20;99.90
34833;DHT22;55941;50.800;4.342;2022-11-15T00:59:34;13.20;99.90
34833;DHT22;55941;50.800;4.342;2022-11-15T01:02:00;13.10;99.90
34833;DHT22;55941;50.800;4.342;2022-11-15T01:04:26;13.10;99.90
34833;DHT22;55941;50.800;4.342;2022-11-15T01:06:53;13.10;99.90
34833;DHT22;55941;50.800;4.342;2022-11-15T01:09:19;13.00;99.90
34833;DHT22;55941;50.800;4.342;2022-11-15T01:11:45;13.00;99.90
34833;DHT22;55941;50.800;4.342;2022-11-15T01:14:11;13.00;99.90
34833;DHT22;55941;50.800;4.342;2022-11-15T01:16:36;13.10;99.90
34833;DHT22;55941;50.800;4.342;2022-11-15T01:19:02;13.00;99.90
34833;DHT22;55941;50.800;4.342;2022-11-15T01:21:28;13.00;99.90
34833;DHT22;55941;50.800;4.342;2022-11-15T01:23:55;13.00;99.90
34833;DHT22;55941;50.800;4.342;2022-11-15T01:26:22;13.10;99.90
34833;DHT22;55941;50.800;4.342;2022-11-15T01:28:48;13.20;99.90
34833;DHT22;55941;50.800;4.342;2022-11-15T01:31:17;13.10;99.90
34833;DHT22;55941;50.800;4.342;2022-11-15T01:33:45;13.00;99.90
34833;DHT22;55941;50.800;4.342;2022-11-15T01:36:14;13.10;99.90
34833;DHT22;55941;50.800;4.342;2022-11-15T01:38:40;13.00;99.90
34833;DHT22;55941;50.800;4.342;2022-11-15T01:41:13;13.10;99.90
34833;DHT22;55941;50.800;4.342;2022-11-15T01:43:39;13.20;99.90
34833;DHT22;55941;50.800;4.342;2022-11-15T01:46:30;13.20;99.90
34833;DHT22;55941;50.800;4.342;2022-11-15T01:49:00;13.10;99.90
34833;DHT22;55941;50.800;4.342;2022-11-15T01:51:30;13.10;99.90
34833;DHT22;55941;50.800;4.342;2022-11-15T01:54:02;13.10;99.90
34833;DHT22;55941;50.800;4.342;2022-11-15T01:56:32;13.20;99.90
34833;DHT22;55941;50.800;4.342;2022-11-15T01:59:02;13.00;99.90
34833;DHT22;55941;50.800;4.342;2022-11-15T02:01:30;13.20;99.90
34833;DHT22;55941;50.800;4.342;2022-11-15T02:04:06;13.10;99.90
34833;DHT22;55941;50.800;4.342;2022-11-15T02:06:35;13.10;99.90
34833;DHT22;55941;50.800;4.342;2022-11-15T02:09:02;13.00;99.90
34833;DHT22;55941;50.800;4.342;2022-11-15T02:11:28;13.00;99.90
34833;DHT22;55941;50.800;4.342;2022-11-15T02:13:55;12.90;99.90
34833;DHT22;55941;50.800;4.342;2022-11-15T02:16:59;13.00;99.90
34833;DHT22;55941;50.800;4.342;2022-11-15T02:36:37;13.00;99.90
34833;DHT22;55941;50.800;4.342;2022-11-15T02:41:41;13.00;99.90
34833;DHT22;55941;50.800;4.342;2022-11-15T02:44:21;13.00;99.90
34833;DHT22;55941;50.800;4.342;2022-11-15T02:46:59;12.90;99.90
34833;DHT22;55941;50.800;4.342;2022-11-15T02:49:44;13.00;99.90
34833;DHT22;55941;50.800;4.342;2022-11-15T02:52:15;13.00;99.90
34833;DHT22;55941;50.800;4.342;2022-11-15T02:54:41;13.00;99.90
34833;DHT22;55941;50.800;4.342;2022-11-15T02:57:12;13.00;99.90
34833;DHT22;55941;50.800;4.342;2022-11-15T03:02:33;12.80;99.90
34833;DHT22;55941;50.800;4.342;2022-11-15T03:13:37;12.80;99.90
34833;DHT22;55941;50.800;4.342;2022-11-15T03:19:23;12.90;99.90
34833;DHT22;55941;50.800;4.342;2022-11-15T03:21:52;13.00;99.90
34833;DHT22;55941;50.800;4.342;2022-11-15T03:24:21;12.90;99.90
34833;DHT22;55941;50.800;4.342;2022-11-15T03:26:48;12.80;99.90
34833;DHT22;55941;50.800;4.342;2022-11-15T03:29:19;12.90;99.90
34833;DHT22;55941;50.800;4.342;2022-11-15T03:31:51;12.90;99.90
34833;DHT22;55941;50.800;4.342;2022-11-15T03:34:32;12.90;99.90
34833;DHT22;55941;50.800;4.342;2022-11-15T03:37:00;12.80;99.90
34833;DHT22;55941;50.800;4.342;2022-11-15T03:39:27;12.90;99.90
34833;DHT22;55941;50.800;4.342;2022-11-15T03:47:41;12.90;99.90
34833;DHT22;55941;50.800;4.342;2022-11-15T03:50:15;12.80;99.90
34833;DHT22;55941;50.800;4.342;2022-11-15T03:52:43;12.80;99.90
34833;DHT22;55941;50.800;4.342;2022-11-15T03:55:16;12.70;99.90
34833;DHT22;55941;50.800;4.342;2022-11-15T03:57:42;12.70;99.90
34833;DHT22;55941;50.800;4.342;2022-11-15T04:00:10;12.50;99.90
34833;DHT22;55941;50.800;4.342;2022-11-15T04:02:36;12.70;99.90
34833;DHT22;55941;50.800;4.342;2022-11-15T04:05:02;12.70;99.90
34833;DHT22;55941;50.800;4.342;2022-11-15T04:07:28;12.60;99.90
34833;DHT22;55941;50.800;4.342;2022-11-15T04:09:54;12.60;99.90
34833;DHT22;55941;50.800;4.342;2022-11-15T04:12:37;12.50;99.90
34833;DHT22;55941;50.800;4.342;2022-11-15T04:15:08;12.50;99.90
34833;DHT22;55941;50.800;4.342;2022-11-15T04:20:01;12.50;99.90
34833;DHT22;55941;50.800;4.342;2022-11-15T04:22:46;12.50;99.90
34833;DHT22;55941;50.800;4.342;2022-11-15T04:25:31;12.50;99.90
34833;DHT22;55941;50.800;4.342;2022-11-15T04:27:57;12.40;99.90
34833;DHT22;55941;50.800;4.342;2022-11-15T04:30:23;12.30;99.90
34833;DHT22;55941;50.800;4.342;2022-11-15T04:32:48;12.40;99.90
34833;DHT22;55941;50.800;4.342;2022-11-15T04:35:14;12.50;99.90
34833;DHT22;55941;50.800;4.342;2022-11-15T04:37:40;12.40;99.90
34833;DHT22;55941;50.800;4.342;2022-11-15T04:40:06;12.40;99.90
34833;DHT22;55941;50.800;4.342;2022-11-15T04:42:32;12.20;99.90
34833;DHT22;55941;50.800;4.342;2022-11-15T04:44:58;12.20;99.90
34833;DHT22;55941;50.800;4.342;2022-11-15T04:47:24;12.20;99.90
34833;DHT22;55941;50.800;4.342;2022-11-15T04:49:49;12.20;99.90
34833;DHT22;55941;50.800;4.342;2022-11-15T04:52:15;12.10;99.90
34833;DHT22;55941;50.800;4.342;2022-11-15T04:54:41;12.20;99.90
34833;DHT22;55941;50.800;4.342;2022-11-15T04:57:08;12.20;99.90
34833;DHT22;55941;50.800;4.342;2022-11-15T04:59:35;12.40;99.90
34833;DHT22;55941;50.800;4.342;2022-11-15T05:02:01;12.20;99.90
34833;DHT22;55941;50.800;4.342;2022-11-15T05:04:27;12.00;99.90
34833;DHT22;55941;50.800;4.342;2022-11-15T05:06:53;12.00;99.90
34833;DHT22;55941;50.800;4.342;2022-11-15T05:09:20;12.00;99.90
34833;DHT22;55941;50.800;4.342;2022-11-15T05:11:47;11.90;99.90
34833;DHT22;55941;50.800;4.342;2022-11-15T05:14:13;11.80;99.90
34833;DHT22;55941;50.800;4.342;2022-11-15T05:16:39;11.70;99.90
34833;DHT22;55941;50.800;4.342;2022-11-15T05:19:06;11.70;99.90
34833;DHT22;55941;50.800;4.342;2022-11-15T05:21:32;11.60;99.90
34833;DHT22;55941;50.800;4.342;2022-11-15T05:23:58;11.60;99.90
34833;DHT22;55941;50.800;4.342;2022-11-15T05:26:24;11.50;99.90
34833;DHT22;55941;50.800;4.342;2022-11-15T05:28:57;11.50;99.90
34833;DHT22;55941;50.800;4.342;2022-11-15T05:31:24;11.50;99.90
34833;DHT22;55941;50.800;4.342;2022-11-15T05:33:51;11.40;99.90
34833;DHT22;55941;50.800;4.342;2022-11-15T05:36:31;11.60;99.90
34833;DHT22;55941;50.800;4.342;2022-11-15T05:38:59;11.50;99.90
34833;DHT22;55941;50.800;4.342;2022-11-15T05:41:49;11.40;99.90
34833;DHT22;55941;50.800;4.342;2022-11-15T05:44:20;11.40;99.90
34833;DHT22;55941;50.800;4.342;2022-11-15T05:46:48;11.20;99.90
34833;DHT22;55941;50.800;4.342;2022-11-15T05:49:17;11.30;99.90
34833;DHT22;55941;50.800;4.342;2022-11-15T05:51:46;11.10;99.90
34833;DHT22;55941;50.800;4.342;2022-11-15T05:54:15;11.10;99.90
34833;DHT22;55941;50.800;4.342;2022-11-15T05:56:41;11.20;99.90
34833;DHT22;55941;50.800;4.342;2022-11-15T05:59:10;11.20;99.90
34833;DHT22;55941;50.800;4.342;2022-11-15T06:01:36;11.30;99.90
34833;DHT22;55941;50.800;4.342;2022-11-15T06:04:03;11.20;99.90
34833;DHT22;55941;50.800;4.342;2022-11-15T06:06:28;11.30;99.90
34833;DHT22;55941;50.800;4.342;2022-11-15T06:08:54;11.10;99.90
34833;DHT22;55941;50.800;4.342;2022-11-15T06:11:20;11.00;99.90
34833;DHT22;55941;50.800;4.342;2022-11-15T06:13:45;11.10;99.90
34833;DHT22;55941;50.800;4.342;2022-11-15T06:16:11;11.00;99.90
34833;DHT22;55941;50.800;4.342;2022-11-15T06:18:37;10.90;99.90
34833;DHT22;55941;50.800;4.342;2022-11-15T06:21:03;11.00;99.90
34833;DHT22;55941;50.800;4.342;2022-11-15T06:23:32;11.00;99.90
34833;DHT22;55941;50.800;4.342;2022-11-15T06:25:58;10.80;99.90
34833;DHT22;55941;50.800;4.342;2022-11-15T06:28:34;10.80;99.90
34833;DHT22;55941;50.800;4.342;2022-11-15T06:31:07;10.80;99.90
34833;DHT22;55941;50.800;4.342;2022-11-15T06:33:34;10.70;99.90
34833;DHT22;55941;50.800;4.342;2022-11-15T06:36:01;10.70;99.90
34833;DHT22;55941;50.800;4.342;2022-11-15T06:38:27;10.80;99.90
34833;DHT22;55941;50.800;4.342;2022-11-15T06:40:53;10.70;99.90
34833;DHT22;55941;50.800;4.342;2022-11-15T06:43:19;10.70;99.90
34833;DHT22;55941;50.800;4.342;2022-11-15T06:45:45;10.70;99.90
34833;DHT22;55941;50.800;4.342;2022-11-15T06:48:11;10.60;99.90
34833;DHT22;55941;50.800;4.342;2022-11-15T06:50:37;10.60;99.90
34833;DHT22;55941;50.800;4.342;2022-11-15T06:53:05;10.50;99.90
34833;DHT22;55941;50.800;4.342;2022-11-15T06:55:31;10.50;99.90
34833;DHT22;55941;50.800;4.342;2022-11-15T06:57:57;10.50;99.90
34833;DHT22;55941;50.800;4.342;2022-11-15T07:00:23;10.30;99.90
34833;DHT22;55941;50.800;4.342;2022-11-15T07:02:49;10.40;99.90
34833;DHT22;55941;50.800;4.342;2022-11-15T07:05:15;10.40;99.90
34833;DHT22;55941;50.800;4.342;2022-11-15T07:07:41;10.40;99.90
34833;DHT22;55941;50.800;4.342;2022-11-15T07:10:07;10.40;99.90
34833;DHT22;55941;50.800;4.342;2022-11-15T07:12:33;10.30;99.90
34833;DHT22;55941;50.800;4.342;2022-11-15T07:14:59;10.40;99.90
34833;DHT22;55941;50.800;4.342;2022-11-15T07:17:25;10.40;99.90
34833;DHT22;55941;50.800;4.342;2022-11-15T07:19:50;10.30;99.90
34833;DHT22;55941;50.800;4.342;2022-11-15T07:22:16;10.30;99.90
34833;DHT22;55941;50.800;4.342;2022-11-15T07:24:41;10.40;99.90
34833;DHT22;55941;50.800;4.342;2022-11-15T07:27:07;10.40;99.90
34833;DHT22;55941;50.800;4.342;2022-11-15T07:29:33;10.40;99.90
34833;DHT22;55941;50.800;4.342;2022-11-15T07:31:59;10.40;99.90
34833;DHT22;55941;50.800;4.342;2022-11-15T07:34:25;10.30;99.90
34833;DHT22;55941;50.800;4.342;2022-11-15T07:36:51;10.20;99.90
34833;DHT22;55941;50.800;4.342;2022-11-15T07:39:17;10.30;99.90
34833;DHT22;55941;50.800;4.342;2022-11-15T07:41:44;10.40;99.90
34833;DHT22;55941;50.800;4.342;2022-11-15T07:44:10;10.40;99.90
34833;DHT22;55941;50.800;4.342;2022-11-15T07:46:36;10.30;99.90
34833;DHT22;55941;50.800;4.342;2022-11-15T07:49:02;10.50;99.90
34833;DHT22;55941;50.800;4.342;2022-11-15T07:51:28;10.50;99.90
34833;DHT22;55941;50.800;4.342;2022-11-15T07:53:54;10.50;99.90
34833;DHT22;55941;50.800;4.342;2022-11-15T07:56:20;10.60;99.90
34833;DHT22;55941;50.800;4.342;2022-11-15T07:58:46;10.60;99.90
34833;DHT22;55941;50.800;4.342;2022-11-15T08:01:12;10.80;99.90
34833;DHT22;55941;50.800;4.342;2022-11-15T08:03:38;10.70;99.90
34833;DHT22;55941;50.800;4.342;2022-11-15T08:06:04;10.70;99.90
34833;DHT22;55941;50.800;4.342;2022-11-15T08:08:30;10.60;99.90
34833;DHT22;55941;50.800;4.342;2022-11-15T08:11:00;10.70;99.90
34833;DHT22;55941;50.800;4.342;2022-11-15T08:13:26;10.70;99.90
34833;DHT22;55941;50.800;4.342;2022-11-15T08:15:58;10.70;99.90
34833;DHT22;55941;50.800;4.342;2022-11-15T08:18:24;10.80;99.90
34833;DHT22;55941;50.800;4.342;2022-11-15T08:20:49;10.90;99.90
34833;DHT22;55941;50.800;4.342;2022-11-15T08:23:15;10.90;99.90
34833;DHT22;55941;50.800;4.342;2022-11-15T08:25:41;10.80;99.90
34833;DHT22;55941;50.800;4.342;2022-11-15T08:28:09;10.80;99.90
34833;DHT22;55941;50.800;4.342;2022-11-15T08:30:37;10.80;99.90
34833;DHT22;55941;50.800;4.342;2022-11-15T08:33:03;10.90;99.90
34833;DHT22;55941;50.800;4.342;2022-11-15T08:35:29;10.90;99.90
34833;DHT22;55941;50.800;4.342;2022-11-15T08:37:54;11.00;99.90
34833;DHT22;55941;50.800;4.342;2022-11-15T08:40:20;11.20;99.90
34833;DHT22;55941;50.800;4.342;2022-11-15T08:42:47;11.10;99.90
34833;DHT22;55941;50.800;4.342;2022-11-15T08:45:13;11.20;99.90
34833;DHT22;55941;50.800;4.342;2022-11-15T08:47:40;11.00;99.90
34833;DHT22;55941;50.800;4.342;2022-11-15T08:50:06;11.00;99.90
34833;DHT22;55941;50.800;4.342;2022-11-15T08:52:32;11.10;99.90
34833;DHT22;55941;50.800;4.342;2022-11-15T08:54:59;11.20;99.90
34833;DHT22;55941;50.800;4.342;2022-11-15T08:57:27;11.20;99.90
34833;DHT22;55941;50.800;4.342;2022-11-15T08:59:54;11.30;99.90
34833;DHT22;55941;50.800;4.342;2022-11-15T09:02:19;11.40;99.90
34833;DHT22;55941;50.800;4.342;2022-11-15T09:04:46;11.50;99.90
34833;DHT22;55941;50.800;4.342;2022-11-15T09:07:12;11.60;99.90
34833;DHT22;55941;50.800;4.342;2022-11-15T09:09:39;11.40;99.90
34833;DHT22;55941;50.800;4.342;2022-11-15T09:12:05;11.50;99.90
34833;DHT22;55941;50.800;4.342;2022-11-15T09:14:31;11.60;99.90
34833;DHT22;55941;50.800;4.342;2022-11-15T09:16:57;11.60;99.90
34833;DHT22;55941;50.800;4.342;2022-11-15T09:19:23;11.60;99.90
34833;DHT22;55941;50.800;4.342;2022-11-15T09:21:51;11.40;99.90
34833;DHT22;55941;50.800;4.342;2022-11-15T09:24:17;11.40;99.90
34833;DHT22;55941;50.800;4.342;2022-11-15T09:26:43;11.50;99.90
34833;DHT22;55941;50.800;4.342;2022-11-15T09:29:10;11.50;99.90
34833;DHT22;55941;50.800;4.342;2022-11-15T09:31:35;11.40;99.90
34833;DHT22;55941;50.800;4.342;2022-11-15T09:34:01;11.70;99.90
34833;DHT22;55941;50.800;4.342;2022-11-15T09:36:27;11.70;99.90
34833;DHT22;55941;50.800;4.342;2022-11-15T09:38:52;11.70;99.90
34833;DHT22;55941;50.800;4.342;2022-11-15T09:44:29;11.90;99.90
34833;DHT22;55941;50.800;4.342;2022-11-15T09:47:30;11.90;99.90
34833;DHT22;55941;50.800;4.342;2022-11-15T09:50:00;12.10;99.90
34833;DHT22;55941;50.800;4.342;2022-11-15T09:52:27;12.10;99.90
34833;DHT22;55941;50.800;4.342;2022-11-15T09:54:53;12.10;99.90
34833;DHT22;55941;50.800;4.342;2022-11-15T09:57:37;12.30;99.90
34833;DHT22;55941;50.800;4.342;2022-11-15T10:00:54;12.40;99.90
34833;DHT22;55941;50.800;4.342;2022-11-15T10:05:43;12.30;99.90
34833;DHT22;55941;50.800;4.342;2022-11-15T10:10:42;12.40;99.90
34833;DHT22;55941;50.800;4.342;2022-11-15T10:13:30;12.40;99.90
34833;DHT22;55941;50.800;4.342;2022-11-15T10:16:08;12.60;99.90
34833;DHT22;55941;50.800;4.342;2022-11-15T10:18:56;12.60;99.90
34833;DHT22;55941;50.800;4.342;2022-11-15T10:24:23;12.80;99.90
34833;DHT22;55941;50.800;4.342;2022-11-15T10:26:49;13.00;99.90
34833;DHT22;55941;50.800;4.342;2022-11-15T10:29:22;12.90;99.90
34833;DHT22;55941;50.800;4.342;2022-11-15T10:31:49;13.20;99.90
34833;DHT22;55941;50.800;4.342;2022-11-15T10:34:20;13.20;99.90
34833;DHT22;55941;50.800;4.342;2022-11-15T10:36:53;13.40;99.90
34833;DHT22;55941;50.800;4.342;2022-11-15T10:39:19;13.50;99.90
34833;DHT22;55941;50.800;4.342;2022-11-15T10:41:45;13.50;99.90
34833;DHT22;55941;50.800;4.342;2022-11-15T10:44:19;13.70;99.90
34833;DHT22;55941;50.800;4.342;2022-11-15T10:49:22;13.90;99.90
34833;DHT22;55941;50.800;4.342;2022-11-15T10:54:37;14.10;99.90
34833;DHT22;55941;50.800;4.342;2022-11-15T10:57:10;14.30;99.90
34833;DHT22;55941;50.800;4.342;2022-11-15T10:59:38;14.40;99.90
34833;DHT22;55941;50.800;4.342;2022-11-15T11:02:30;14.40;99.90
34833;DHT22;55941;50.800;4.342;2022-11-15T11:04:58;14.30;99.90
34833;DHT22;55941;50.800;4.342;2022-11-15T11:07:32;14.40;99.90
34833;DHT22;55941;50.800;4.342;2022-11-15T11:10:05;14.20;99.90
34833;DHT22;55941;50.800;4.342;2022-11-15T11:12:33;14.20;99.90
34833;DHT22;55941;50.800;4.342;2022-11-15T11:15:08;14.30;99.90
34833;DHT22;55941;50.800;4.342;2022-11-15T11:26:09;14.50;99.90
34833;DHT22;55941;50.800;4.342;2022-11-15T11:31:38;14.60;99.90
34833;DHT22;55941;50.800;4.342;2022-11-15T11:37:11;14.80;99.90
34833;DHT22;55941;50.800;4.342;2022-11-15T11:51:12;14.80;99.90
34833;DHT22;55941;50.800;4.342;2022-11-15T11:53:43;14.80;99.90
34833;DHT22;55941;50.800;4.342;2022-11-15T11:56:25;14.80;99.90
34833;DHT22;55941;50.800;4.342;2022-11-15T11:58:53;14.50;99.90
34833;DHT22;55941;50.800;4.342;2022-11-15T12:01:34;14.50;99.90
34833;DHT22;55941;50.800;4.342;2022-11-15T12:06:49;14.40;99.90
34833;DHT22;55941;50.800;4.342;2022-11-15T12:09:39;14.60;99.90
34833;DHT22;55941;50.800;4.342;2022-11-15T12:14:45;14.40;99.90
34833;DHT22;55941;50.800;4.342;2022-11-15T12:17:13;14.40;99.90
34833;DHT22;55941;50.800;4.342;2022-11-15T12:19:39;14.40;99.90
34833;DHT22;55941;50.800;4.342;2022-11-15T12:22:19;14.40;99.90
34833;DHT22;55941;50.800;4.342;2022-11-15T12:24:57;14.30;99.90
34833;DHT22;55941;50.800;4.342;2022-11-15T12:27:37;14.40;99.90
34833;DHT22;55941;50.800;4.342;2022-11-15T12:30:18;14.50;99.90
34833;DHT22;55941;50.800;4.342;2022-11-15T12:32:52;14.40;99.90
34833;DHT22;55941;50.800;4.342;2022-11-15T12:35:30;14.40;99.90
34833;DHT22;55941;50.800;4.342;2022-11-15T12:37:58;14.50;99.90
34833;DHT22;55941;50.800;4.342;2022-11-15T12:40:28;14.40;99.90
34833;DHT22;55941;50.800;4.342;2022-11-15T12:43:01;14.50;99.90
34833;DHT22;55941;50.800;4.342;2022-11-15T12:45:37;14.50;99.90
34833;DHT22;55941;50.800;4.342;2022-11-15T12:53:27;14.70;99.90
34833;DHT22;55941;50.800;4.342;2022-11-15T12:58:57;14.90;99.90
34833;DHT22;55941;50.800;4.342;2022-11-15T13:12:08;15.20;99.90
34833;DHT22;55941;50.800;4.342;2022-11-15T13:22:18;15.10;99.90
34833;DHT22;55941;50.800;4.342;2022-11-15T13:25:03;15.00;99.90
34833;DHT22;55941;50.800;4.342;2022-11-15T13:27:29;15.00;99.90
34833;DHT22;55941;50.800;4.342;2022-11-15T13:29:55;15.00;99.90
34833;DHT22;55941;50.800;4.342;2022-11-15T13:32:21;15.10;99.90
34833;DHT22;55941;50.800;4.342;2022-11-15T13:34:49;15.00;99.90
34833;DHT22;55941;50.800;4.342;2022-11-15T13:39:47;14.70;99.90
34833;DHT22;55941;50.800;4.342;2022-11-15T13:42:19;14.90;99.90
34833;DHT22;55941;50.800;4.342;2022-11-15T13:44:58;14.90;99.90
34833;DHT22;55941;50.800;4.342;2022-11-15T13:47:29;15.00;99.90
34833;DHT22;55941;50.800;4.342;2022-11-15T13:49:58;14.80;99.90
34833;DHT22;55941;50.800;4.342;2022-11-15T13:52:32;14.90;99.90
34833;DHT22;55941;50.800;4.342;2022-11-15T13:57:47;14.80;99.90
34833;DHT22;55941;50.800;4.342;2022-11-15T14:02:51;14.80;99.90
34833;DHT22;55941;50.800;4.342;2022-11-15T14:05:20;14.60;99.90
34833;DHT22;55941;50.800;4.342;2022-11-15T14:08:03;14.60;99.90
34833;DHT22;55941;50.800;4.342;2022-11-15T14:10:37;14.70;99.90
34833;DHT22;55941;50.800;4.342;2022-11-15T14:13:25;14.70;99.90
34833;DHT22;55941;50.800;4.342;2022-11-15T14:15:51;14.60;99.90
34833;DHT22;55941;50.800;4.342;2022-11-15T14:18:47;14.60;99.90
34833;DHT22;55941;50.800;4.342;2022-11-15T14:21:13;14.60;99.90
34833;DHT22;55941;50.800;4.342;2022-11-15T14:23:39;14.60;99.90
34833;DHT22;55941;50.800;4.342;2022-11-15T14:26:05;14.60;99.90
34833;DHT22;55941;50.800;4.342;2022-11-15T14:28:33;14.40;99.90
34833;DHT22;55941;50.800;4.342;2022-11-15T14:31:11;14.40;99.90
34833;DHT22;55941;50.800;4.342;2022-11-15T14:33:39;14.30;99.90
34833;DHT22;55941;50.800;4.342;2022-11-15T14:36:10;14.20;99.90
34833;DHT22;55941;50.800;4.342;2022-11-15T14:38:36;14.20;99.90
34833;DHT22;55941;50.800;4.342;2022-11-15T14:41:02;14.20;99.90
34833;DHT22;55941;50.800;4.342;2022-11-15T14:43:28;14.10;99.90
34833;DHT22;55941;50.800;4.342;2022-11-15T14:45:54;13.90;99.90
34833;DHT22;55941;50.800;4.342;2022-11-15T14:48:20;14.00;99.90
34833;DHT22;55941;50.800;4.342;2022-11-15T14:50:46;14.00;99.90
34833;DHT22;55941;50.800;4.342;2022-11-15T14:53:13;14.00;99.90
34833;DHT22;55941;50.800;4.342;2022-11-15T14:55:40;14.00;99.90
34833;DHT22;55941;50.800;4.342;2022-11-15T14:58:07;14.00;99.90
34833;DHT22;55941;50.800;4.342;2022-11-15T15:00:37;14.10;99.90
34833;DHT22;55941;50.800;4.342;2022-11-15T15:03:05;14.00;99.90
34833;DHT22;55941;50.800;4.342;2022-11-15T15:07:58;14.10;99.90
34833;DHT22;55941;50.800;4.342;2022-11-15T15:10:25;14.10;99.90
34833;DHT22;55941;50.800;4.342;2022-11-15T15:12:53;14.10;99.90
34833;DHT22;55941;50.800;4.342;2022-11-15T15:15:25;13.90;99.90
34833;DHT22;55941;50.800;4.342;2022-11-15T15:17:51;13.80;99.90
34833;DHT22;55941;50.800;4.342;2022-11-15T15:20:17;13.60;99.90
34833;DHT22;55941;50.800;4.342;2022-11-15T15:22:44;13.80;99.90
34833;DHT22;55941;50.800;4.342;2022-11-15T15:25:31;13.70;99.90
34833;DHT22;55941;50.800;4.342;2022-11-15T15:27:58;13.70;99.90
34833;DHT22;55941;50.800;4.342;2022-11-15T15:30:25;13.70;99.90
34833;DHT22;55941;50.800;4.342;2022-11-15T15:32:52;13.80;99.90
34833;DHT22;55941;50.800;4.342;2022-11-15T15:35:19;13.60;99.90
34833;DHT22;55941;50.800;4.342;2022-11-15T15:37:46;13.50;99.90
34833;DHT22;55941;50.800;4.342;2022-11-15T15:40:32;13.60;99.90
34833;DHT22;55941;50.800;4.342;2022-11-15T15:42:58;13.60;99.90
34833;DHT22;55941;50.800;4.342;2022-11-15T15:45:25;13.40;99.90
34833;DHT22;55941;50.800;4.342;2022-11-15T15:47:50;13.30;99.90
34833;DHT22;55941;50.800;4.342;2022-11-15T15:50:33;13.40;99.90
34833;DHT22;55941;50.800;4.342;2022-11-15T15:53:01;13.40;99.90
34833;DHT22;55941;50.800;4.342;2022-11-15T15:55:28;13.50;99.90
34833;DHT22;55941;50.800;4.342;2022-11-15T15:57:54;13.40;99.90
34833;DHT22;55941;50.800;4.342;2022-11-15T16:00:20;13.40;99.90
34833;DHT22;55941;50.800;4.342;2022-11-15T16:02:48;13.40;99.90
34833;DHT22;55941;50.800;4.342;2022-11-15T16:05:14;13.40;99.90
34833;DHT22;55941;50.800;4.342;2022-11-15T16:07:39;13.30;99.90
34833;DHT22;55941;50.800;4.342;2022-11-15T16:10:24;13.40;99.90
34833;DHT22;55941;50.800;4.342;2022-11-15T16:12:54;13.30;99.90
34833;DHT22;55941;50.800;4.342;2022-11-15T16:15:21;13.40;99.90
34833;DHT22;55941;50.800;4.342;2022-11-15T16:17:51;13.40;99.90
34833;DHT22;55941;50.800;4.342;2022-11-15T16:20:33;13.40;99.90
34833;DHT22;55941;50.800;4.342;2022-11-15T16:23:00;13.30;99.90
34833;DHT22;55941;50.800;4.342;2022-11-15T16:25:26;13.20;99.90
34833;DHT22;55941;50.800;4.342;2022-11-15T16:27:52;13.20;99.90
34833;DHT22;55941;50.800;4.342;2022-11-15T16:30:20;13.20;99.90
34833;DHT22;55941;50.800;4.342;2022-11-15T16:32:46;13.20;99.90
34833;DHT22;55941;50.800;4.342;2022-11-15T16:35:15;13.30;99.90
34833;DHT22;55941;50.800;4.342;2022-11-15T16:37:41;13.20;99.90
34833;DHT22;55941;50.800;4.342;2022-11-15T16:40:26;13.20;99.90
34833;DHT22;55941;50.800;4.342;2022-11-15T16:42:52;13.20;99.90
34833;DHT22;55941;50.800;4.342;2022-11-15T16:45:18;13.20;99.90
34833;DHT22;55941;50.800;4.342;2022-11-15T16:47:44;13.20;99.90
34833;DHT22;55941;50.800;4.342;2022-11-15T16:50:25;13.20;99.90
34833;DHT22;55941;50.800;4.342;2022-11-15T16:52:52;13.30;99.90
34833;DHT22;55941;50.800;4.342;2022-11-15T16:55:20;13.20;99.90
34833;DHT22;55941;50.800;4.342;2022-11-15T16:57:46;13.30;99.90
34833;DHT22;55941;50.800;4.342;2022-11-15T17:00:14;13.30;99.90
34833;DHT22;55941;50.800;4.342;2022-11-15T17:02:45;13.20;99.90
34833;DHT22;55941;50.800;4.342;2022-11-15T17:05:11;13.30;99.90
34833;DHT22;55941;50.800;4.342;2022-11-15T17:07:39;13.20;99.90
34833;DHT22;55941;50.800;4.342;2022-11-15T17:10:05;13.20;99.90
34833;DHT22;55941;50.800;4.342;2022-11-15T17:12:33;13.20;99.90
34833;DHT22;55941;50.800;4.342;2022-11-15T17:14:59;13.20;99.90
34833;DHT22;55941;50.800;4.342;2022-11-15T17:17:31;13.20;99.90
34833;DHT22;55941;50.800;4.342;2022-11-15T17:19:57;13.20;99.90
34833;DHT22;55941;50.800;4.342;2022-11-15T17:22:22;13.20;99.90
34833;DHT22;55941;50.800;4.342;2022-11-15T17:24:48;13.20;99.90
34833;DHT22;55941;50.800;4.342;2022-11-15T17:27:14;13.30;99.90
34833;DHT22;55941;50.800;4.342;2022-11-15T17:29:41;13.30;99.90
34833;DHT22;55941;50.800;4.342;2022-11-15T17:32:08;13.20;99.90
34833;DHT22;55941;50.800;4.342;2022-11-15T17:34:34;13.20;99.90
34833;DHT22;55941;50.800;4.342;2022-11-15T17:36:59;13.20;99.90
34833;DHT22;55941;50.800;4.342;2022-11-15T17:39:25;13.30;99.90
34833;DHT22;55941;50.800;4.342;2022-11-15T17:41:51;13.40;99.90
34833;DHT22;55941;50.800;4.342;2022-11-15T17:44:17;13.40;99.90
34833;DHT22;55941;50.800;4.342;2022-11-15T17:46:43;13.40;99.90
34833;DHT22;55941;50.800;4.342;2022-11-15T17:49:09;13.30;99.90